createdAt,value
2023-01-23T00:00:00.930Z,102516.22
2023-01-23T00:02:27.858Z,102526.31
2023-01-23T00:04:54.413Z,102526.00
2023-01-23T00:07:20.981Z,102524.09
2023-01-23T00:09:47.553Z,102521.09
2023-01-23T00:12:14.119Z,102525.22
2023-01-23T00:14:40.692Z,102534.06
2023-01-23T00:17:07.320Z,102525.00
2023-01-23T00:19:33.956Z,102525.91
2023-01-23T00:22:01.056Z,102527.94
2023-01-23T00:24:27.634Z,102531.16
2023-01-23T00:26:54.480Z,102531.88
2023-01-23T00:29:21.567Z,102523.53
2023-01-23T00:31:48.221Z,102532.28
2023-01-23T00:34:16.051Z,102532.41
2023-01-23T00:36:43.794Z,102532.75
2023-01-23T00:39:18.242Z,102523.28
2023-01-23T00:41:45.763Z,102524.81
2023-01-23T00:44:14.767Z,102524.00
2023-01-23T00:46:44.529Z,102529.09
2023-01-23T00:49:13.705Z,102531.72
2023-01-23T00:51:40.373Z,102536.78
2023-01-23T00:54:07.032Z,102532.94
2023-01-23T00:56:42.045Z,102535.44
2023-01-23T00:59:10.170Z,102541.19
2023-01-23T01:01:36.979Z,102534.06
2023-01-23T01:04:03.712Z,102530.22
2023-01-23T01:06:30.609Z,102540.47
2023-01-23T01:08:58.816Z,102541.25
2023-01-23T01:11:25.701Z,102544.34
2023-01-23T01:13:52.361Z,102555.41
2023-01-23T01:16:19.520Z,102547.66
2023-01-23T01:18:46.191Z,102558.38
2023-01-23T01:21:14.181Z,102550.88
2023-01-23T01:23:41.099Z,102554.53
2023-01-23T01:26:08.055Z,102554.84
2023-01-23T01:28:39.448Z,102555.09
2023-01-23T01:31:10.897Z,102557.94
2023-01-23T01:33:38.398Z,102563.28
2023-01-23T01:36:12.966Z,102567.03
2023-01-23T01:38:39.971Z,102572.44
2023-01-23T01:41:07.608Z,102576.69
2023-01-23T01:43:35.250Z,102577.50
2023-01-23T01:46:16.611Z,102577.97
2023-01-23T01:49:02.126Z,102582.47
2023-01-23T01:51:31.614Z,102576.41
2023-01-23T01:54:03.092Z,102587.13
2023-01-23T01:56:30.564Z,102586.25
2023-01-23T01:58:58.456Z,102586.09
2023-01-23T02:01:25.676Z,102587.84
2023-01-23T02:03:55.542Z,102596.16
2023-01-23T02:06:22.291Z,102591.78
2023-01-23T02:09:03.934Z,102600.09
2023-01-23T02:11:30.987Z,102596.94
2023-01-23T02:14:00.283Z,102597.78
2023-01-23T02:16:29.687Z,102599.44
2023-01-23T02:19:01.106Z,102599.41
2023-01-23T02:21:29.092Z,102607.53
2023-01-23T02:24:00.183Z,102599.63
2023-01-23T02:26:29.396Z,102596.53
2023-01-23T02:28:57.392Z,102600.59
2023-01-23T02:31:31.114Z,102600.09
2023-01-23T02:33:59.238Z,102599.72
2023-01-23T02:36:28.399Z,102598.03
2023-01-23T02:38:57.060Z,102598.69
2023-01-23T02:41:28.209Z,102609.59
2023-01-23T02:43:56.077Z,102601.72
2023-01-23T02:46:26.639Z,102606.97
2023-01-23T02:48:53.408Z,102605.63
2023-01-23T02:51:21.954Z,102615.00
2023-01-23T02:53:50.976Z,102611.81
2023-01-23T02:56:18.391Z,102614.69
2023-01-23T02:59:06.851Z,102619.03
2023-01-23T03:01:35.769Z,102626.13
2023-01-23T03:04:06.355Z,102620.34
2023-01-23T03:06:37.543Z,102626.28
2023-01-23T03:09:07.667Z,102628.97
2023-01-23T03:11:35.107Z,102624.69
2023-01-23T03:14:04.343Z,102622.06
2023-01-23T03:16:31.040Z,102617.72
2023-01-23T03:18:58.982Z,102629.84
2023-01-23T03:21:30.336Z,102622.13
2023-01-23T03:23:56.962Z,102628.56
2023-01-23T03:26:23.613Z,102624.59
2023-01-23T03:29:09.235Z,102626.97
2023-01-23T03:31:35.870Z,102633.38
2023-01-23T03:34:02.464Z,102643.22
2023-01-23T03:36:33.176Z,102635.22
2023-01-23T03:39:18.580Z,102643.75
2023-01-23T03:41:45.848Z,102641.19
2023-01-23T03:44:18.875Z,102647.00
2023-01-23T03:47:03.943Z,102633.97
2023-01-23T03:49:33.028Z,102638.09
2023-01-23T03:51:59.857Z,102621.34
2023-01-23T03:54:28.081Z,102624.13
2023-01-23T03:56:54.893Z,102640.19
2023-01-23T03:59:40.146Z,102629.13
2023-01-23T04:02:07.956Z,102638.59
2023-01-23T04:04:34.624Z,102641.50
2023-01-23T04:07:03.041Z,102645.03
2023-01-23T04:09:31.197Z,102643.06
2023-01-23T04:11:59.649Z,102655.44
2023-01-23T04:14:27.144Z,102658.06
2023-01-23T04:16:54.092Z,102658.97
2023-01-23T04:19:23.501Z,102661.50
2023-01-23T04:21:53.158Z,102661.94
2023-01-23T04:24:20.352Z,102662.31
2023-01-23T04:26:49.329Z,102666.81
2023-01-23T04:29:19.810Z,102657.47
2023-01-23T04:31:46.748Z,102663.66
2023-01-23T04:34:13.638Z,102659.72
2023-01-23T04:36:43.873Z,102665.44
2023-01-23T04:39:10.509Z,102664.97
2023-01-23T04:41:40.322Z,102663.34
2023-01-23T04:44:20.863Z,102661.59
2023-01-23T04:47:13.826Z,102657.09
2023-01-23T04:49:40.720Z,102658.09
2023-01-23T04:52:07.295Z,102662.91
2023-01-23T04:55:03.519Z,102661.56
2023-01-23T04:57:30.694Z,102656.75
2023-01-23T05:00:08.327Z,102661.59
2023-01-23T05:02:35.989Z,102659.31
2023-01-23T05:05:03.745Z,102669.06
2023-01-23T05:07:31.106Z,102664.94
2023-01-23T05:10:06.090Z,102672.38
2023-01-23T05:12:34.453Z,102674.88
2023-01-23T05:15:02.312Z,102679.38
2023-01-23T05:17:29.315Z,102676.88
2023-01-23T05:19:55.919Z,102681.06
2023-01-23T05:22:22.901Z,102677.34
2023-01-23T05:24:49.915Z,102679.47
2023-01-23T05:27:18.983Z,102675.13
2023-01-23T05:29:50.385Z,102674.50
2023-01-23T05:32:21.780Z,102680.28
2023-01-23T05:34:56.583Z,102672.75
2023-01-23T05:37:30.569Z,102679.19
2023-01-23T05:40:06.849Z,102681.78
2023-01-23T05:43:14.648Z,102675.50
2023-01-23T05:45:44.038Z,102678.31
2023-01-23T05:48:20.094Z,102682.13
2023-01-23T05:50:46.751Z,102680.44
2023-01-23T05:53:13.735Z,102689.88
2023-01-23T05:55:41.581Z,102696.19
2023-01-23T05:58:15.765Z,102697.53
2023-01-23T06:01:09.173Z,102704.34
2023-01-23T06:03:54.676Z,102706.94
2023-01-23T06:06:47.612Z,102706.75
2023-01-23T06:09:14.312Z,102713.44
2023-01-23T06:11:40.942Z,102713.09
2023-01-23T06:14:09.103Z,102724.06
2023-01-23T06:16:37.509Z,102717.00
2023-01-23T06:19:05.514Z,102719.53
2023-01-23T06:21:35.626Z,102721.78
2023-01-23T06:24:04.375Z,102730.06
2023-01-23T06:26:31.078Z,102726.69
2023-01-23T06:28:57.845Z,102730.63
2023-01-23T06:31:24.433Z,102731.38
2023-01-23T06:33:58.694Z,102738.56
2023-01-23T06:36:37.523Z,102735.81
2023-01-23T06:39:04.331Z,102742.84
2023-01-23T06:41:41.794Z,102751.03
2023-01-23T06:44:12.841Z,102748.88
2023-01-23T06:46:40.070Z,102749.78
2023-01-23T06:49:06.736Z,102749.53
2023-01-23T06:51:36.429Z,102756.94
2023-01-23T06:54:05.498Z,102758.19
2023-01-23T06:56:32.701Z,102767.22
2023-01-23T06:59:05.454Z,102762.47
2023-01-23T07:01:33.125Z,102765.72
2023-01-23T07:04:11.573Z,102772.44
2023-01-23T07:06:39.803Z,102771.31
2023-01-23T07:09:06.745Z,102766.88
2023-01-23T07:11:33.668Z,102775.72
2023-01-23T07:14:00.978Z,102780.44
2023-01-23T07:16:28.956Z,102781.03
2023-01-23T07:19:01.632Z,102780.66
2023-01-23T07:21:32.368Z,102789.13
2023-01-23T07:23:58.985Z,102794.28
2023-01-23T07:26:25.645Z,102794.13
2023-01-23T07:28:54.871Z,102799.75
2023-01-23T07:31:21.497Z,102795.28
2023-01-23T07:33:48.182Z,102798.53
2023-01-23T07:36:15.084Z,102807.75
2023-01-23T07:38:41.804Z,102798.47
2023-01-23T07:41:09.096Z,102802.66
2023-01-23T07:43:35.874Z,102800.50
2023-01-23T07:46:02.828Z,102802.16
2023-01-23T07:48:29.724Z,102796.22
2023-01-23T07:50:56.321Z,102803.50
2023-01-23T07:53:30.295Z,102796.69
2023-01-23T07:55:57.015Z,102801.47
2023-01-23T07:58:26.709Z,102803.84
2023-01-23T08:00:53.331Z,102808.00
2023-01-23T08:03:21.189Z,102810.41
2023-01-23T08:05:52.050Z,102803.28
2023-01-23T08:08:20.979Z,102804.16
2023-01-23T08:10:50.367Z,102802.84
2023-01-23T08:13:16.966Z,102809.44
2023-01-23T08:15:43.612Z,102811.38
2023-01-23T08:18:13.228Z,102819.34
2023-01-23T08:20:39.827Z,102815.22
2023-01-23T08:23:06.444Z,102825.47
2023-01-23T08:25:33.050Z,102831.44
2023-01-23T08:27:59.567Z,102825.19
2023-01-23T08:30:26.230Z,102821.56
2023-01-23T08:32:52.986Z,102823.88
2023-01-23T08:35:19.569Z,102827.06
2023-01-23T08:37:46.144Z,102824.72
2023-01-23T08:40:13.047Z,102829.28
2023-01-23T08:42:39.585Z,102827.75
2023-01-23T08:45:06.771Z,102820.63
2023-01-23T08:47:36.698Z,102827.44
2023-01-23T08:50:04.861Z,102817.91
2023-01-23T08:52:31.659Z,102819.28
2023-01-23T08:54:58.282Z,102825.38
2023-01-23T08:57:25.317Z,102826.00
2023-01-23T08:59:57.996Z,102827.59
2023-01-23T09:02:24.677Z,102830.13
2023-01-23T09:04:51.279Z,102836.81
2023-01-23T09:07:17.892Z,102839.47
2023-01-23T09:09:44.443Z,102832.50
2023-01-23T09:12:11.225Z,102844.22
2023-01-23T09:14:38.316Z,102849.59
2023-01-23T09:17:05.832Z,102850.50
2023-01-23T09:19:32.673Z,102854.94
2023-01-23T09:21:59.369Z,102866.84
2023-01-23T09:24:26.018Z,102866.19
2023-01-23T09:26:54.760Z,102871.78
2023-01-23T09:29:23.435Z,102880.19
2023-01-23T09:31:50.188Z,102888.25
2023-01-23T09:34:17.360Z,102891.69
2023-01-23T09:36:47.259Z,102896.34
2023-01-23T09:39:13.889Z,102891.88
2023-01-23T09:41:43.790Z,102891.91
2023-01-23T09:44:22.725Z,102894.56
2023-01-23T09:47:02.339Z,102898.00
2023-01-23T09:49:34.602Z,102897.72
2023-01-23T09:52:24.607Z,102898.19
2023-01-23T09:54:59.645Z,102903.31
2023-01-23T09:57:28.539Z,102903.50
2023-01-23T10:00:00.649Z,102898.28
2023-01-23T10:02:27.842Z,102900.47
2023-01-23T10:04:55.123Z,102895.75
2023-01-23T10:07:40.600Z,102900.84
2023-01-23T10:10:25.949Z,102894.53
2023-01-23T10:12:59.056Z,102891.94
2023-01-23T10:15:27.456Z,102888.78
2023-01-23T10:18:12.394Z,102897.72
2023-01-23T10:21:03.651Z,102897.91
2023-01-23T10:23:46.229Z,102900.72
2023-01-23T10:26:15.545Z,102903.44
2023-01-23T10:28:43.796Z,102906.97
2023-01-23T10:31:18.529Z,102902.13
2023-01-23T10:33:45.162Z,102904.72
2023-01-23T10:36:32.513Z,102907.63
2023-01-23T10:39:04.740Z,102909.22
2023-01-23T10:41:32.237Z,102910.97
2023-01-23T10:44:00.354Z,102907.66
2023-01-23T10:46:32.486Z,102912.28
2023-01-23T10:49:00.186Z,102919.47
2023-01-23T10:51:46.941Z,102917.38
2023-01-23T10:54:33.079Z,102918.81
2023-01-23T10:56:59.962Z,102910.84
2023-01-23T10:59:41.414Z,102908.66
2023-01-23T11:02:14.483Z,102907.03
2023-01-23T11:04:51.928Z,102905.19
2023-01-23T11:07:23.414Z,102903.50
2023-01-23T11:09:52.743Z,102902.00
2023-01-23T11:12:39.645Z,102899.41
2023-01-23T11:15:22.106Z,102894.06
2023-01-23T11:17:50.093Z,102899.88
2023-01-23T11:20:23.391Z,102901.13
2023-01-23T11:23:00.868Z,102896.44
2023-01-23T11:25:29.208Z,102896.41
2023-01-23T11:28:00.375Z,102900.53
2023-01-23T11:30:31.577Z,102894.28
2023-01-23T11:33:14.943Z,102893.84
2023-01-23T11:35:51.598Z,102893.00
2023-01-23T11:38:30.471Z,102888.69
2023-01-23T11:40:58.378Z,102876.09
2023-01-23T11:43:25.047Z,102876.09
2023-01-23T11:45:54.818Z,102887.00
2023-01-23T11:48:27.469Z,102880.81
2023-01-23T11:50:58.594Z,102889.31
2023-01-23T11:53:43.697Z,102889.03
2023-01-23T11:56:16.399Z,102892.72
2023-01-23T11:58:49.932Z,102892.72
2023-01-23T12:01:34.988Z,102884.16
2023-01-23T12:04:10.765Z,102884.97
2023-01-23T12:06:44.079Z,102874.31
2023-01-23T12:09:11.086Z,102878.88
2023-01-23T12:11:47.588Z,102867.63
2023-01-23T12:14:32.898Z,102877.78
2023-01-23T12:17:12.200Z,102871.44
2023-01-23T12:19:48.091Z,102870.78
2023-01-23T12:22:14.768Z,102863.00
2023-01-23T12:24:41.267Z,102862.91
2023-01-23T12:27:10.540Z,102861.09
2023-01-23T12:29:49.408Z,102868.66
2023-01-23T12:32:28.946Z,102864.34
2023-01-23T12:35:00.727Z,102866.56
2023-01-23T12:37:37.749Z,102869.28
2023-01-23T12:40:25.071Z,102868.97
2023-01-23T12:42:56.526Z,102859.09
2023-01-23T12:45:32.953Z,102870.34
2023-01-23T12:48:18.358Z,102871.25
2023-01-23T12:51:00.418Z,102854.59
2023-01-23T12:53:28.193Z,102865.94
2023-01-23T12:55:55.576Z,102863.53
2023-01-23T12:58:23.740Z,102864.16
2023-01-23T13:01:02.212Z,102856.59
2023-01-23T13:03:46.963Z,102847.94
2023-01-23T13:06:29.027Z,102853.16
2023-01-23T13:09:33.018Z,102858.03
2023-01-23T13:12:22.842Z,102860.16
2023-01-23T13:15:10.522Z,102857.81
2023-01-23T13:17:40.182Z,102864.59
2023-01-23T13:20:37.780Z,102865.34
2023-01-23T13:23:30.498Z,102864.34
2023-01-23T13:26:16.802Z,102873.47
2023-01-23T13:28:46.177Z,102877.28
2023-01-23T13:31:32.912Z,102868.66
2023-01-23T13:34:14.212Z,102867.44
2023-01-23T13:36:43.073Z,102875.91
2023-01-23T13:39:10.537Z,102886.47
2023-01-23T13:41:37.359Z,102882.78
2023-01-23T13:44:22.951Z,102884.84
2023-01-23T14:27:21.996Z,102901.72
2023-01-23T14:30:10.504Z,102904.63
2023-01-23T14:32:38.458Z,102902.41
2023-01-23T14:35:32.004Z,102903.50
2023-01-23T14:38:04.999Z,102909.34
2023-01-23T14:40:43.192Z,102911.34
2023-01-23T14:43:27.864Z,102912.53
2023-01-23T14:46:02.313Z,102915.25
2023-01-23T14:48:30.957Z,102919.84
2023-01-23T14:51:17.366Z,102911.50
2023-01-23T14:53:50.527Z,102902.75
2023-01-23T14:56:17.685Z,102903.25
2023-01-23T14:58:49.554Z,102901.38
2023-01-23T15:01:17.783Z,102901.72
2023-01-23T15:03:54.639Z,102909.84
2023-01-23T15:06:21.941Z,102913.63
2023-01-23T15:08:49.067Z,102916.28
2023-01-23T15:11:16.441Z,102919.66
2023-01-23T15:13:48.966Z,102921.97
2023-01-23T15:16:26.294Z,102924.88
2023-01-23T15:19:18.975Z,102926.84
2023-01-23T15:21:45.653Z,102937.09
2023-01-23T15:24:12.254Z,102933.53
2023-01-23T15:26:55.594Z,102935.59
2023-01-23T15:29:22.228Z,102930.41
2023-01-23T15:31:50.740Z,102925.34
2023-01-23T15:34:19.513Z,102926.81
2023-01-23T15:36:51.545Z,102932.44
2023-01-23T15:39:36.704Z,102931.50
2023-01-23T15:42:03.856Z,102935.78
2023-01-23T15:44:32.139Z,102938.72
2023-01-23T15:47:01.275Z,102939.97
2023-01-23T15:49:28.946Z,102930.59
2023-01-23T15:51:57.411Z,102934.53
2023-01-23T15:54:34.154Z,102934.34
2023-01-23T15:57:07.407Z,102937.19
2023-01-23T15:59:34.850Z,102936.63
2023-01-23T16:02:01.419Z,102939.75
2023-01-23T16:04:28.005Z,102930.69
2023-01-23T16:06:54.617Z,102925.34
2023-01-23T16:09:27.990Z,102928.59
2023-01-23T16:11:54.819Z,102930.22
2023-01-23T16:14:21.418Z,102925.34
2023-01-23T16:16:48.105Z,102924.22
2023-01-23T16:19:14.860Z,102917.88
2023-01-23T16:21:47.745Z,102914.22
2023-01-23T16:24:24.129Z,102915.22
2023-01-23T16:26:51.133Z,102924.28
2023-01-23T16:29:28.071Z,102934.38
2023-01-23T16:31:55.381Z,102927.63
2023-01-23T16:34:22.361Z,102943.78
2023-01-23T16:36:50.303Z,102944.38
2023-01-23T16:39:27.311Z,102946.25
2023-01-23T16:41:55.004Z,102948.72
2023-01-23T16:44:23.794Z,102939.78
2023-01-23T16:46:51.228Z,102942.81
2023-01-23T16:49:17.869Z,102948.88
2023-01-23T16:51:51.606Z,102958.97
2023-01-23T16:54:19.470Z,102948.63
2023-01-23T16:56:51.637Z,102948.13
2023-01-23T16:59:26.437Z,102943.03
2023-01-23T17:01:53.262Z,102954.44
2023-01-23T17:04:20.907Z,102950.31
2023-01-23T17:06:48.325Z,102951.97
2023-01-23T17:09:15.409Z,102947.72
2023-01-23T17:11:42.900Z,102950.47
2023-01-23T17:14:21.846Z,102958.06
2023-01-23T17:16:52.474Z,102957.22
2023-01-23T17:19:34.054Z,102940.66
2023-01-23T17:22:01.581Z,102945.56
2023-01-23T17:24:30.659Z,102948.78
2023-01-23T17:26:57.423Z,102950.53
2023-01-23T17:29:24.780Z,102951.63
2023-01-23T17:31:52.475Z,102954.53
2023-01-23T17:34:24.396Z,102949.91
2023-01-23T17:36:52.871Z,102954.84
2023-01-23T17:39:20.553Z,102964.13
2023-01-23T17:41:47.265Z,102961.34
2023-01-23T17:44:13.813Z,102967.66
2023-01-23T17:46:41.369Z,102962.50
2023-01-23T17:49:29.136Z,102956.78
2023-01-23T17:51:56.676Z,102955.56
2023-01-23T17:54:23.458Z,102962.72
2023-01-23T17:56:50.160Z,102966.44
2023-01-23T17:59:16.689Z,102971.44
2023-01-23T18:01:44.993Z,102968.69
2023-01-23T18:04:16.737Z,102968.91
2023-01-23T18:06:43.369Z,102969.22
2023-01-23T18:09:10.015Z,102967.84
2023-01-23T18:11:40.010Z,102975.53
2023-01-23T18:14:26.323Z,102983.59
2023-01-23T18:16:53.743Z,102974.81
2023-01-23T18:19:21.892Z,102974.94
2023-01-23T18:21:49.936Z,102979.06
2023-01-23T18:24:32.459Z,102982.78
2023-01-23T18:27:09.850Z,102976.00
2023-01-23T18:29:51.707Z,102985.72
2023-01-23T18:32:39.032Z,102987.75
2023-01-23T18:35:14.836Z,102990.69
2023-01-23T18:37:47.625Z,102987.63
2023-01-23T18:40:14.508Z,102983.13
2023-01-23T18:42:41.028Z,102981.03
2023-01-23T18:45:12.478Z,102968.59
2023-01-23T18:47:42.653Z,102966.66
2023-01-23T18:50:15.175Z,102970.50
2023-01-23T18:52:51.546Z,102965.94
2023-01-23T18:55:31.926Z,102971.38
2023-01-23T18:58:21.409Z,102976.09
2023-01-23T19:00:54.716Z,102976.44
2023-01-23T19:03:28.323Z,102974.28
2023-01-23T19:05:55.071Z,102973.94
2023-01-23T19:08:32.805Z,102968.31
2023-01-23T19:11:02.018Z,102973.66
2023-01-23T19:13:45.060Z,102972.94
2023-01-23T19:16:14.135Z,102966.06
2023-01-23T19:18:40.869Z,102966.44
2023-01-23T19:21:12.487Z,102971.38
2023-01-23T19:23:50.162Z,102963.22
2023-01-23T19:26:17.901Z,102970.59
2023-01-23T19:28:44.651Z,102979.97
2023-01-23T19:31:19.091Z,102975.03
2023-01-23T19:33:45.741Z,102987.53
2023-01-23T19:36:12.945Z,102979.50
2023-01-23T19:38:39.705Z,102984.28
2023-01-23T19:41:06.465Z,102984.47
2023-01-23T19:43:33.239Z,102990.84
2023-01-23T19:46:03.175Z,102991.09
2023-01-23T19:48:30.261Z,102999.34
2023-01-23T19:50:58.252Z,103000.53
2023-01-23T19:53:24.962Z,103007.06
2023-01-23T19:55:51.571Z,103007.97
2023-01-23T19:58:18.139Z,103009.09
2023-01-23T20:00:45.312Z,103011.97
2023-01-23T20:03:15.443Z,103010.66
2023-01-23T20:05:42.064Z,103011.59
2023-01-23T20:08:11.090Z,103012.66
2023-01-23T20:10:37.662Z,103016.78
2023-01-23T20:13:04.211Z,103019.88
2023-01-23T20:15:30.811Z,103021.72
2023-01-23T20:17:57.551Z,103029.72
2023-01-23T20:20:24.496Z,103023.19
2023-01-23T20:22:58.374Z,103026.06
2023-01-23T20:25:24.972Z,103027.66
2023-01-23T20:27:51.691Z,103024.41
2023-01-23T20:30:19.686Z,103025.41
2023-01-23T20:32:46.489Z,103021.19
2023-01-23T20:35:13.187Z,103021.41
2023-01-23T20:37:39.767Z,103017.50
2023-01-23T20:40:08.903Z,103016.75
2023-01-23T20:42:35.569Z,103015.16
2023-01-23T20:45:02.206Z,103019.69
2023-01-23T20:47:31.816Z,103013.75
2023-01-23T20:49:58.995Z,103016.59
2023-01-23T20:52:46.484Z,103017.22
2023-01-23T20:55:13.140Z,103020.47
2023-01-23T20:57:58.361Z,103009.72
2023-01-23T21:00:24.996Z,103014.03
2023-01-23T21:02:51.574Z,103018.97
2023-01-23T21:05:18.215Z,103018.97
2023-01-23T21:07:44.818Z,103022.97
2023-01-23T21:10:11.591Z,103015.31
2023-01-23T21:12:38.198Z,103024.41
2023-01-23T21:15:04.998Z,103026.34
2023-01-23T21:17:31.571Z,103026.69
2023-01-23T21:19:58.143Z,103025.16
2023-01-23T21:22:24.732Z,103024.41
2023-01-23T21:24:52.121Z,103025.16
2023-01-23T21:27:20.956Z,103027.72
2023-01-23T21:29:50.842Z,103021.63
2023-01-23T21:32:17.428Z,103024.66
2023-01-23T21:34:44.126Z,103024.81
2023-01-23T21:37:10.982Z,103022.75
2023-01-23T21:39:40.320Z,103021.34
2023-01-23T21:42:06.907Z,103028.28
2023-01-23T21:44:36.397Z,103028.41
2023-01-23T21:47:05.729Z,103026.06
2023-01-23T21:49:32.303Z,103020.06
2023-01-23T21:51:58.875Z,103027.19
2023-01-23T21:54:25.489Z,103029.75
2023-01-23T21:56:52.102Z,103035.97
2023-01-23T21:59:18.816Z,103036.75
2023-01-23T22:01:46.795Z,103029.34
2023-01-23T22:04:18.403Z,103034.75
2023-01-23T22:06:47.808Z,103038.19
2023-01-23T22:09:16.123Z,103031.28
2023-01-23T22:11:43.160Z,103031.53
2023-01-23T22:14:09.782Z,103033.94
2023-01-23T22:16:48.103Z,103027.09
2023-01-23T22:19:16.641Z,103030.69
2023-01-23T22:21:51.648Z,103037.47
2023-01-23T22:24:20.551Z,103037.59
2023-01-23T22:26:47.269Z,103032.25
2023-01-23T22:29:14.023Z,103020.94
2023-01-23T22:31:41.090Z,103029.88
2023-01-23T22:34:07.808Z,103028.94
2023-01-23T22:36:36.303Z,103021.81
2023-01-23T22:39:02.956Z,103030.78
2023-01-23T22:41:29.523Z,103036.50
2023-01-23T22:43:56.711Z,103035.41
2023-01-23T22:46:23.916Z,103031.94
2023-01-23T22:48:50.891Z,103043.97
2023-01-23T22:51:23.627Z,103046.41
2023-01-23T22:53:53.411Z,103039.56
2023-01-23T22:56:20.510Z,103043.06
2023-01-23T22:58:47.810Z,103043.56
2023-01-23T23:01:20.694Z,103042.25
2023-01-23T23:03:47.310Z,103034.75
2023-01-23T23:06:14.939Z,103042.81
2023-01-23T23:08:41.808Z,103043.06
2023-01-23T23:11:09.750Z,103041.03
2023-01-23T23:13:37.410Z,103036.81
2023-01-23T23:16:25.973Z,103036.66
2023-01-23T23:18:53.697Z,103034.03
2023-01-23T23:21:21.906Z,103034.16
2023-01-23T23:23:49.012Z,103031.75
2023-01-23T23:26:16.169Z,103027.47
2023-01-23T23:28:50.118Z,103022.91
2023-01-23T23:31:16.765Z,103015.34
2023-01-23T23:33:43.407Z,103010.56
2023-01-23T23:36:12.669Z,103014.63
2023-01-23T23:38:41.594Z,103021.94
2023-01-23T23:41:15.882Z,103025.84
2023-01-23T23:43:43.374Z,103025.22
2023-01-23T23:46:10.862Z,103028.94
2023-01-23T23:48:38.299Z,103031.81
2023-01-23T23:51:06.915Z,103029.13
2023-01-23T23:53:34.036Z,103026.00
2023-01-23T23:56:00.561Z,103021.31
2023-01-23T23:58:27.266Z,103013.88
